createdAt,value
2019-02-18T00:01:42.067Z,6.81
2019-02-18T00:06:52.176Z,6.73
2019-02-18T00:12:03.209Z,6.58
2019-02-18T00:17:12.209Z,6.62
2019-02-18T00:22:14.209Z,6.62
2019-02-18T00:27:22.455Z,6.32
2019-02-18T00:32:37.758Z,6.48
2019-02-18T00:37:48.026Z,6.33
2019-02-18T00:43:04.190Z,6.01
2019-02-18T00:48:14.419Z,5.94
2019-02-18T00:53:23.490Z,6.22
2019-02-18T00:58:32.479Z,6.03
2019-02-18T01:03:41.769Z,5.96
2019-02-18T01:08:50.584Z,5.71
2019-02-18T01:14:00.925Z,5.99
2019-02-18T01:19:15.773Z,5.86
2019-02-18T01:24:30.712Z,6.03
2019-02-18T01:29:38.960Z,5.18
2019-02-18T01:34:54.113Z,5.49
2019-02-18T01:40:03.523Z,5.83
2019-02-18T01:45:19.317Z,5.13
2019-02-18T01:50:38.631Z,4.84
2019-02-18T01:55:47.700Z,5.49
2019-02-18T02:00:57.517Z,5.59
2019-02-18T02:06:09.569Z,5.56
2019-02-18T02:11:19.918Z,5.45
2019-02-18T02:16:31.707Z,5.27
2019-02-18T02:21:40.667Z,5.41
2019-02-18T02:26:49.704Z,5.62
2019-02-18T02:31:58.585Z,5.45
2019-02-18T02:37:13.571Z,5.45
2019-02-18T02:42:23.509Z,5.53
2019-02-18T02:47:38.652Z,5.42
2019-02-18T02:52:47.548Z,5.51
2019-02-18T02:57:56.572Z,5.32
2019-02-18T03:03:05.518Z,5.32
2019-02-18T03:08:20.298Z,5.10
2019-02-18T03:13:26.324Z,5.04
2019-02-18T03:18:38.506Z,4.99
2019-02-18T03:23:55.661Z,5.21
2019-02-18T03:29:40.791Z,5.04
2019-02-18T03:34:51.848Z,4.85
2019-02-18T03:40:12.558Z,5.07
2019-02-18T03:45:25.079Z,5.26
2019-02-18T03:50:34.050Z,5.03
2019-02-18T04:01:14.343Z,5.05
2019-02-18T04:06:23.573Z,5.16
2019-02-18T04:11:33.597Z,4.94
2019-02-18T04:16:42.903Z,4.87
2019-02-18T04:21:51.638Z,4.69
2019-02-18T04:27:01.586Z,4.87
2019-02-18T04:32:10.645Z,4.85
2019-02-18T04:37:30.758Z,4.91
2019-02-18T04:42:42.710Z,4.76
2019-02-18T04:47:51.738Z,4.79
2019-02-18T04:53:07.120Z,4.57
2019-02-18T04:58:22.499Z,4.67
2019-02-18T05:03:31.633Z,4.65
2019-02-18T05:08:39.839Z,4.64
2019-02-18T05:13:42.115Z,4.43
2019-02-18T05:18:58.596Z,4.31
2019-02-18T05:24:06.772Z,4.54
2019-02-18T05:29:15.683Z,4.52
2019-02-18T05:34:25.229Z,4.57
2019-02-18T05:39:34.234Z,4.37
2019-02-18T05:44:47.549Z,4.31
2019-02-18T05:49:59.511Z,4.06
2019-02-18T05:55:09.371Z,4.20
2019-02-18T06:00:18.384Z,3.99
2019-02-18T06:05:27.388Z,4.15
2019-02-18T06:10:36.369Z,4.16
2019-02-18T06:15:51.493Z,4.15
2019-02-18T06:20:59.718Z,4.15
2019-02-18T06:26:08.751Z,4.17
2019-02-18T06:31:16.858Z,4.26
2019-02-18T06:36:28.015Z,4.24
2019-02-18T06:41:38.344Z,4.17
2019-02-18T06:46:56.427Z,4.04
2019-02-18T06:52:11.774Z,4.10
2019-02-18T06:57:38.136Z,4.25
2019-02-18T07:09:01.944Z,4.26
2019-02-18T07:14:11.010Z,4.10
2019-02-18T07:19:21.145Z,4.08
2019-02-18T07:24:31.296Z,4.28
2019-02-18T07:29:42.419Z,4.33
2019-02-18T07:34:53.544Z,4.54
2019-02-18T07:40:02.714Z,4.54
2019-02-18T07:45:23.456Z,4.51
2019-02-18T07:50:38.409Z,4.55
2019-02-18T07:55:47.347Z,4.68
2019-02-18T08:00:57.786Z,5.02
2019-02-18T08:06:13.248Z,5.14
2019-02-18T08:11:22.094Z,5.24
2019-02-18T08:16:33.160Z,5.31
2019-02-18T08:21:44.125Z,5.45
2019-02-18T08:27:01.036Z,5.59
2019-02-18T08:32:18.907Z,5.83
2019-02-18T08:37:33.483Z,5.87
2019-02-18T08:42:50.804Z,6.10
2019-02-18T08:47:59.923Z,6.17
2019-02-18T08:53:17.154Z,6.30
2019-02-18T08:58:26.182Z,6.52
2019-02-18T09:03:41.267Z,6.69
2019-02-18T09:08:56.420Z,6.94
2019-02-18T09:14:07.336Z,7.21
2019-02-18T09:19:17.529Z,7.51
2019-02-18T09:24:37.593Z,7.73
2019-02-18T09:29:46.600Z,7.92
2019-02-18T09:35:02.046Z,8.14
2019-02-18T09:40:08.429Z,8.25
2019-02-18T09:45:19.305Z,8.40
2019-02-18T09:50:31.337Z,8.50
2019-02-18T09:55:46.674Z,8.96
2019-02-18T10:00:56.985Z,9.18
2019-02-18T10:06:12.120Z,9.17
2019-02-18T10:11:22.527Z,9.48
2019-02-18T10:16:31.930Z,9.48
2019-02-18T10:21:44.475Z,9.64
2019-02-18T10:26:53.537Z,9.74
2019-02-18T10:32:02.410Z,9.82
2019-02-18T10:37:11.507Z,10.42
2019-02-18T10:42:22.666Z,10.48
2019-02-18T10:47:31.591Z,10.45
2019-02-18T10:52:46.680Z,10.57
2019-02-18T10:57:55.858Z,10.81
2019-02-18T11:03:05.935Z,10.77
2019-02-18T11:08:14.992Z,10.94
2019-02-18T11:13:31.124Z,11.51
2019-02-18T11:18:40.274Z,11.33
2019-02-18T11:23:49.254Z,11.78
2019-02-18T11:29:02.212Z,11.63
2019-02-18T11:34:10.926Z,12.21
2019-02-18T11:39:19.601Z,12.22
2019-02-18T11:44:29.762Z,12.77
2019-02-18T11:49:38.664Z,13.33
2019-02-18T11:54:55.583Z,13.33
2019-02-18T12:00:10.695Z,13.30
2019-02-18T12:05:21.621Z,13.32
2019-02-18T12:10:36.847Z,13.32
2019-02-18T12:15:45.159Z,13.38
2019-02-18T12:20:53.410Z,13.55
2019-02-18T12:26:03.601Z,13.65
2019-02-18T12:31:12.721Z,13.95
2019-02-18T12:36:28.712Z,13.95
2019-02-18T12:41:47.957Z,13.47
2019-02-18T12:46:48.669Z,14.06
2019-02-18T12:52:04.900Z,14.01
2019-02-18T12:57:13.986Z,14.15
2019-02-18T13:02:22.844Z,14.31
2019-02-18T13:07:38.879Z,14.31
2019-02-18T13:18:20.218Z,14.28
2019-02-18T13:23:29.158Z,14.33
2019-02-18T13:28:38.105Z,14.49
2019-02-18T13:33:46.915Z,14.25
2019-02-18T13:38:48.979Z,14.30
2019-02-18T13:43:59.550Z,14.07
2019-02-18T13:49:11.353Z,14.10
2019-02-18T13:54:26.436Z,14.25
2019-02-18T13:59:36.112Z,13.98
2019-02-18T14:04:51.183Z,13.85
2019-02-18T14:10:00.511Z,14.05
2019-02-18T14:15:09.647Z,14.12
2019-02-18T14:20:18.925Z,13.97
2019-02-18T14:25:27.848Z,13.72
2019-02-18T14:30:36.910Z,13.72
2019-02-18T14:41:33.492Z,13.53
2019-02-18T14:46:36.380Z,13.80
2019-02-18T15:13:16.159Z,15.14
2019-02-18T15:18:19.172Z,13.48
2019-02-18T15:23:23.137Z,13.08
2019-02-18T15:42:53.730Z,13.47
2019-02-18T15:48:01.691Z,13.13
2019-02-18T15:53:00.666Z,13.06
2019-02-18T15:58:02.663Z,12.96
2019-02-18T16:03:05.379Z,12.79
2019-02-18T16:08:07.434Z,12.69
2019-02-18T16:13:09.444Z,12.81
2019-02-18T16:18:11.566Z,12.34
2019-02-18T16:23:13.627Z,11.91
2019-02-18T16:28:15.682Z,11.91
2019-02-18T16:33:23.070Z,12.00
2019-02-18T16:38:25.471Z,11.72
2019-02-18T16:43:27.788Z,11.53
2019-02-18T16:48:29.794Z,11.50
2019-02-18T16:53:32.115Z,11.30
2019-02-18T16:58:34.129Z,11.23
2019-02-18T17:03:36.146Z,11.16
2019-02-18T17:08:38.160Z,10.96
2019-02-18T17:13:40.179Z,10.91
2019-02-18T17:18:44.812Z,10.64
2019-02-18T17:23:46.830Z,10.56
2019-02-18T17:28:48.984Z,10.49
2019-02-18T17:33:56.862Z,10.43
2019-02-18T17:38:58.909Z,10.30
2019-02-18T17:44:01.042Z,10.24
2019-02-18T17:49:04.068Z,10.33
2019-02-18T17:54:06.596Z,10.61
2019-02-18T17:59:10.731Z,10.88
2019-02-18T18:04:12.788Z,11.06
2019-02-18T18:09:20.636Z,11.18
2019-02-18T18:14:25.536Z,11.34
2019-02-18T18:19:34.433Z,11.34
2019-02-18T18:24:36.488Z,10.95
2019-02-18T18:29:38.573Z,10.50
2019-02-18T18:34:40.917Z,10.33
2019-02-18T18:39:46.271Z,10.08
2019-02-18T18:44:48.320Z,9.93
2019-02-18T18:49:50.705Z,9.76
2019-02-18T18:54:55.165Z,9.53
2019-02-18T19:00:00.301Z,9.43
2019-02-18T19:05:02.596Z,9.33
2019-02-18T19:10:07.346Z,9.18
2019-02-18T19:15:11.408Z,9.06
2019-02-18T19:20:13.474Z,8.95
2019-02-18T19:25:15.522Z,8.94
2019-02-18T19:30:20.186Z,8.96
2019-02-18T19:35:22.500Z,8.93
2019-02-18T19:40:25.037Z,8.90
2019-02-18T19:45:27.152Z,8.78
2019-02-18T19:50:30.985Z,8.81
2019-02-18T19:55:33.022Z,8.84
2019-02-18T20:00:35.671Z,8.71
2019-02-18T20:05:37.673Z,8.53
2019-02-18T20:10:39.723Z,8.49
2019-02-18T20:15:41.719Z,8.24
2019-02-18T20:20:43.792Z,8.11
2019-02-18T20:25:46.321Z,8.04
2019-02-18T20:30:48.611Z,7.77
2019-02-18T20:35:50.607Z,7.66
2019-02-18T20:40:52.825Z,7.63
2019-02-18T20:45:57.263Z,7.67
2019-02-18T20:50:59.580Z,7.55
2019-02-18T20:56:01.583Z,7.60
2019-02-18T21:01:05.619Z,7.61
2019-02-18T21:06:07.723Z,7.53
2019-02-18T21:11:09.870Z,7.61
2019-02-18T21:16:12.289Z,7.79
2019-02-18T21:21:14.462Z,7.64
2019-02-18T21:26:16.730Z,7.85
2019-02-18T21:31:18.789Z,7.81
2019-02-18T21:36:20.843Z,7.80
2019-02-18T21:41:26.404Z,7.96
2019-02-18T21:46:31.398Z,8.10
2019-02-18T21:51:36.822Z,8.28
2019-02-18T21:56:43.247Z,8.35
2019-02-18T22:01:45.379Z,8.59
2019-02-18T22:06:47.380Z,8.64
2019-02-18T22:11:49.722Z,8.88
2019-02-18T22:16:51.766Z,8.92
2019-02-18T22:21:53.891Z,9.16
2019-02-18T22:26:56.020Z,9.39
2019-02-18T22:32:00.778Z,9.28
2019-02-18T22:37:04.792Z,9.06
2019-02-18T22:42:06.906Z,8.91
2019-02-18T22:47:08.902Z,8.87
2019-02-18T22:52:10.899Z,8.67
2019-02-18T22:57:12.918Z,8.59
2019-02-18T23:02:17.769Z,8.45
2019-02-18T23:07:19.785Z,8.53
2019-02-18T23:12:22.218Z,8.59
2019-02-18T23:17:27.843Z,8.63
2019-02-18T23:22:30.132Z,8.70
2019-02-18T23:27:32.448Z,8.56
2019-02-18T23:32:35.014Z,8.57
2019-02-18T23:37:37.036Z,8.39
2019-02-18T23:42:41.521Z,8.38
2019-02-18T23:47:43.539Z,8.44
2019-02-18T23:52:45.836Z,8.34
2019-02-18T23:57:48.050Z,8.42
